sensor_id;sensor_type;location;lat;lon;timestamp;P1;durP1;ratioP1;P2;durP2;ratioP2
21814;SDS011;11069;48.988;8.450;2023-04-30T00:01:23;11.32;;;8.88;;
21814;SDS011;11069;48.988;8.450;2023-04-30T00:03:49;10.07;;;9.07;;
21814;SDS011;11069;48.988;8.450;2023-04-30T00:06:15;9.18;;;8.07;;
21814;SDS011;11069;48.988;8.450;2023-04-30T00:08:41;9.50;;;8.50;;
21814;SDS011;11069;48.988;8.450;2023-04-30T00:11:07;9.70;;;8.52;;
21814;SDS011;11069;48.988;8.450;2023-04-30T00:13:33;9.85;;;8.85;;
21814;SDS011;11069;48.988;8.450;2023-04-30T00:15:59;9.13;;;8.23;;
21814;SDS011;11069;48.988;8.450;2023-04-30T00:18:25;11.20;;;8.82;;
21814;SDS011;11069;48.988;8.450;2023-04-30T00:20:51;9.65;;;7.95;;
21814;SDS011;11069;48.988;8.450;2023-04-30T00:23:17;9.18;;;7.80;;
21814;SDS011;11069;48.988;8.450;2023-04-30T00:25:43;8.43;;;7.50;;
21814;SDS011;11069;48.988;8.450;2023-04-30T00:28:12;8.88;;;7.95;;
21814;SDS011;11069;48.988;8.450;2023-04-30T00:30:38;9.85;;;8.85;;
21814;SDS011;11069;48.988;8.450;2023-04-30T00:33:04;9.95;;;8.05;;
21814;SDS011;11069;48.988;8.450;2023-04-30T00:35:30;10.65;;;8.50;;
21814;SDS011;11069;48.988;8.450;2023-04-30T00:37:56;9.55;;;8.10;;
21814;SDS011;11069;48.988;8.450;2023-04-30T00:40:22;8.43;;;7.60;;
21814;SDS011;11069;48.988;8.450;2023-04-30T00:42:48;12.68;;;8.20;;
21814;SDS011;11069;48.988;8.450;2023-04-30T00:45:16;9.07;;;8.13;;
21814;SDS011;11069;48.988;8.450;2023-04-30T00:47:45;9.05;;;7.78;;
21814;SDS011;11069;48.988;8.450;2023-04-30T00:50:11;8.38;;;7.43;;
21814;SDS011;11069;48.988;8.450;2023-04-30T00:52:40;9.27;;;7.53;;
21814;SDS011;11069;48.988;8.450;2023-04-30T00:55:06;7.95;;;7.15;;
21814;SDS011;11069;48.988;8.450;2023-04-30T00:57:32;7.90;;;7.10;;
21814;SDS011;11069;48.988;8.450;2023-04-30T00:59:59;8.75;;;7.53;;
21814;SDS011;11069;48.988;8.450;2023-04-30T01:02:25;7.78;;;6.85;;
21814;SDS011;11069;48.988;8.450;2023-04-30T01:04:51;8.15;;;7.28;;
21814;SDS011;11069;48.988;8.450;2023-04-30T01:07:17;7.30;;;6.50;;
21814;SDS011;11069;48.988;8.450;2023-04-30T01:09:43;7.47;;;6.78;;
21814;SDS011;11069;48.988;8.450;2023-04-30T01:12:16;6.55;;;5.95;;
21814;SDS011;11069;48.988;8.450;2023-04-30T01:19:45;6.50;;;5.90;;
21814;SDS011;11069;48.988;8.450;2023-04-30T01:22:14;6.55;;;5.95;;
21814;SDS011;11069;48.988;8.450;2023-04-30T01:27:31;6.20;;;5.60;;
21814;SDS011;11069;48.988;8.450;2023-04-30T01:30:06;7.20;;;6.35;;
21814;SDS011;11069;48.988;8.450;2023-04-30T01:32:32;6.40;;;5.80;;
21814;SDS011;11069;48.988;8.450;2023-04-30T01:34:58;8.60;;;6.32;;
21814;SDS011;11069;48.988;8.450;2023-04-30T01:53:05;7.97;;;6.55;;
21814;SDS011;11069;48.988;8.450;2023-04-30T01:55:35;8.25;;;6.47;;
21814;SDS011;11069;48.988;8.450;2023-04-30T01:58:06;6.85;;;6.03;;
21814;SDS011;11069;48.988;8.450;2023-04-30T02:00:34;8.35;;;6.30;;
21814;SDS011;11069;48.988;8.450;2023-04-30T02:03:00;7.68;;;6.70;;
21814;SDS011;11069;48.988;8.450;2023-04-30T02:05:26;7.80;;;6.90;;
21814;SDS011;11069;48.988;8.450;2023-04-30T02:07:52;7.35;;;6.65;;
21814;SDS011;11069;48.988;8.450;2023-04-30T02:10:20;7.95;;;6.93;;
21814;SDS011;11069;48.988;8.450;2023-04-30T02:12:46;7.68;;;6.40;;
21814;SDS011;11069;48.988;8.450;2023-04-30T02:15:12;7.75;;;7.00;;
21814;SDS011;11069;48.988;8.450;2023-04-30T02:17:38;7.47;;;6.65;;
21814;SDS011;11069;48.988;8.450;2023-04-30T02:20:04;8.35;;;6.68;;
21814;SDS011;11069;48.988;8.450;2023-04-30T02:22:31;8.27;;;6.22;;
21814;SDS011;11069;48.988;8.450;2023-04-30T02:24:57;7.13;;;6.43;;
21814;SDS011;11069;48.988;8.450;2023-04-30T02:27:23;7.30;;;6.60;;
21814;SDS011;11069;48.988;8.450;2023-04-30T02:29:50;7.93;;;6.65;;
21814;SDS011;11069;48.988;8.450;2023-04-30T02:32:16;7.53;;;6.82;;
21814;SDS011;11069;48.988;8.450;2023-04-30T02:34:42;8.52;;;7.63;;
21814;SDS011;11069;48.988;8.450;2023-04-30T02:37:08;8.52;;;7.20;;
21814;SDS011;11069;48.988;8.450;2023-04-30T02:39:34;9.05;;;6.25;;
21814;SDS011;11069;48.988;8.450;2023-04-30T02:42:00;7.38;;;6.63;;
21814;SDS011;11069;48.988;8.450;2023-04-30T02:44:26;8.18;;;6.97;;
21814;SDS011;11069;48.988;8.450;2023-04-30T02:46:52;9.23;;;7.53;;
21814;SDS011;11069;48.988;8.450;2023-04-30T02:49:18;7.63;;;6.82;;
21814;SDS011;11069;48.988;8.450;2023-04-30T02:51:44;7.65;;;6.53;;
21814;SDS011;11069;48.988;8.450;2023-04-30T02:54:10;9.38;;;7.35;;
21814;SDS011;11069;48.988;8.450;2023-04-30T02:56:36;7.88;;;6.78;;
21814;SDS011;11069;48.988;8.450;2023-04-30T02:59:03;8.30;;;7.43;;
21814;SDS011;11069;48.988;8.450;2023-04-30T03:01:29;9.45;;;7.22;;
21814;SDS011;11069;48.988;8.450;2023-04-30T03:03:55;8.05;;;6.85;;
21814;SDS011;11069;48.988;8.450;2023-04-30T03:06:22;9.55;;;8.18;;
21814;SDS011;11069;48.988;8.450;2023-04-30T03:08:48;9.02;;;7.47;;
21814;SDS011;11069;48.988;8.450;2023-04-30T03:11:14;10.15;;;8.50;;
21814;SDS011;11069;48.988;8.450;2023-04-30T03:13:41;8.80;;;7.90;;
21814;SDS011;11069;48.988;8.450;2023-04-30T03:16:07;11.23;;;8.30;;
21814;SDS011;11069;48.988;8.450;2023-04-30T03:18:33;8.75;;;7.65;;
21814;SDS011;11069;48.988;8.450;2023-04-30T03:20:59;9.43;;;7.85;;
21814;SDS011;11069;48.988;8.450;2023-04-30T03:23:26;9.93;;;7.93;;
21814;SDS011;11069;48.988;8.450;2023-04-30T03:25:53;11.13;;;7.60;;
21814;SDS011;11069;48.988;8.450;2023-04-30T03:28:19;9.77;;;7.78;;
21814;SDS011;11069;48.988;8.450;2023-04-30T03:30:45;8.98;;;7.90;;
21814;SDS011;11069;48.988;8.450;2023-04-30T03:33:11;10.90;;;8.20;;
21814;SDS011;11069;48.988;8.450;2023-04-30T03:35:37;9.52;;;8.45;;
21814;SDS011;11069;48.988;8.450;2023-04-30T03:38:03;9.73;;;8.65;;
21814;SDS011;11069;48.988;8.450;2023-04-30T03:40:29;9.35;;;8.43;;
21814;SDS011;11069;48.988;8.450;2023-04-30T03:42:55;10.25;;;8.85;;
21814;SDS011;11069;48.988;8.450;2023-04-30T03:45:21;10.32;;;9.23;;
21814;SDS011;11069;48.988;8.450;2023-04-30T03:47:48;9.32;;;8.25;;
21814;SDS011;11069;48.988;8.450;2023-04-30T03:50:16;9.60;;;8.60;;
21814;SDS011;11069;48.988;8.450;2023-04-30T03:52:42;9.32;;;8.40;;
21814;SDS011;11069;48.988;8.450;2023-04-30T03:55:08;11.38;;;8.85;;
21814;SDS011;11069;48.988;8.450;2023-04-30T03:57:34;10.32;;;8.63;;
21814;SDS011;11069;48.988;8.450;2023-04-30T04:00:01;11.15;;;8.77;;
21814;SDS011;11069;48.988;8.450;2023-04-30T04:02:31;9.90;;;8.90;;
21814;SDS011;11069;48.988;8.450;2023-04-30T04:04:57;10.45;;;8.73;;
21814;SDS011;11069;48.988;8.450;2023-04-30T04:07:23;10.07;;;9.07;;
21814;SDS011;11069;48.988;8.450;2023-04-30T04:09:49;10.45;;;9.35;;
21814;SDS011;11069;48.988;8.450;2023-04-30T04:12:15;10.25;;;9.13;;
21814;SDS011;11069;48.988;8.450;2023-04-30T04:14:41;9.30;;;8.35;;
21814;SDS011;11069;48.988;8.450;2023-04-30T04:17:07;11.20;;;8.95;;
21814;SDS011;11069;48.988;8.450;2023-04-30T04:19:33;11.93;;;9.48;;
21814;SDS011;11069;48.988;8.450;2023-04-30T04:21:59;11.52;;;10.02;;
21814;SDS011;11069;48.988;8.450;2023-04-30T04:24:25;10.38;;;9.18;;
21814;SDS011;11069;48.988;8.450;2023-04-30T04:26:51;9.48;;;8.50;;
21814;SDS011;11069;48.988;8.450;2023-04-30T04:29:17;10.55;;;9.40;;
21814;SDS011;11069;48.988;8.450;2023-04-30T04:31:43;10.27;;;9.15;;
21814;SDS011;11069;48.988;8.450;2023-04-30T04:34:11;12.23;;;9.75;;
21814;SDS011;11069;48.988;8.450;2023-04-30T04:36:37;10.52;;;9.43;;
21814;SDS011;11069;48.988;8.450;2023-04-30T04:39:03;9.90;;;8.90;;
21814;SDS011;11069;48.988;8.450;2023-04-30T04:41:30;10.80;;;9.20;;
21814;SDS011;11069;48.988;8.450;2023-04-30T04:43:56;11.93;;;8.65;;
21814;SDS011;11069;48.988;8.450;2023-04-30T04:46:23;11.52;;;9.32;;
21814;SDS011;11069;48.988;8.450;2023-04-30T04:48:49;11.60;;;9.02;;
21814;SDS011;11069;48.988;8.450;2023-04-30T04:51:15;10.63;;;9.48;;
21814;SDS011;11069;48.988;8.450;2023-04-30T04:53:41;10.15;;;8.77;;
21814;SDS011;11069;48.988;8.450;2023-04-30T04:56:07;13.25;;;10.38;;
21814;SDS011;11069;48.988;8.450;2023-04-30T04:58:33;11.02;;;9.18;;
21814;SDS011;11069;48.988;8.450;2023-04-30T05:00:59;10.35;;;9.30;;
21814;SDS011;11069;48.988;8.450;2023-04-30T05:03:26;10.80;;;9.70;;
21814;SDS011;11069;48.988;8.450;2023-04-30T05:05:52;10.73;;;9.63;;
21814;SDS011;11069;48.988;8.450;2023-04-30T05:08:18;11.10;;;9.73;;
21814;SDS011;11069;48.988;8.450;2023-04-30T05:10:44;12.57;;;9.25;;
21814;SDS011;11069;48.988;8.450;2023-04-30T05:13:10;12.25;;;9.55;;
21814;SDS011;11069;48.988;8.450;2023-04-30T05:15:36;11.52;;;9.95;;
21814;SDS011;11069;48.988;8.450;2023-04-30T05:18:02;12.45;;;10.10;;
21814;SDS011;11069;48.988;8.450;2023-04-30T05:20:28;10.25;;;9.18;;
21814;SDS011;11069;48.988;8.450;2023-04-30T05:22:54;10.82;;;9.68;;
21814;SDS011;11069;48.988;8.450;2023-04-30T05:25:20;12.68;;;10.73;;
21814;SDS011;11069;48.988;8.450;2023-04-30T05:27:46;11.02;;;9.60;;
21814;SDS011;11069;48.988;8.450;2023-04-30T05:30:12;11.30;;;9.73;;
21814;SDS011;11069;48.988;8.450;2023-04-30T05:32:39;11.00;;;9.43;;
21814;SDS011;11069;48.988;8.450;2023-04-30T05:35:05;10.52;;;9.43;;
21814;SDS011;11069;48.988;8.450;2023-04-30T05:37:31;11.55;;;10.32;;
21814;SDS011;11069;48.988;8.450;2023-04-30T05:39:57;10.95;;;9.85;;
21814;SDS011;11069;48.988;8.450;2023-04-30T05:42:23;11.30;;;9.77;;
21814;SDS011;11069;48.988;8.450;2023-04-30T05:44:49;10.77;;;9.45;;
21814;SDS011;11069;48.988;8.450;2023-04-30T05:47:15;10.75;;;9.65;;
21814;SDS011;11069;48.988;8.450;2023-04-30T05:49:41;11.82;;;9.05;;
21814;SDS011;11069;48.988;8.450;2023-04-30T05:52:08;9.90;;;8.90;;
21814;SDS011;11069;48.988;8.450;2023-04-30T05:54:34;10.50;;;9.23;;
21814;SDS011;11069;48.988;8.450;2023-04-30T05:57:00;11.00;;;8.95;;
21814;SDS011;11069;48.988;8.450;2023-04-30T05:59:26;10.07;;;9.07;;
21814;SDS011;11069;48.988;8.450;2023-04-30T06:01:52;12.05;;;9.63;;
21814;SDS011;11069;48.988;8.450;2023-04-30T06:04:18;11.02;;;9.38;;
21814;SDS011;11069;48.988;8.450;2023-04-30T06:06:44;11.02;;;9.13;;
21814;SDS011;11069;48.988;8.450;2023-04-30T06:09:10;11.85;;;9.73;;
21814;SDS011;11069;48.988;8.450;2023-04-30T06:11:36;10.88;;;9.10;;
21814;SDS011;11069;48.988;8.450;2023-04-30T06:14:02;11.50;;;10.25;;
21814;SDS011;11069;48.988;8.450;2023-04-30T06:16:29;11.07;;;9.90;;
21814;SDS011;11069;48.988;8.450;2023-04-30T06:18:55;10.82;;;9.52;;
21814;SDS011;11069;48.988;8.450;2023-04-30T06:21:21;11.13;;;9.63;;
21814;SDS011;11069;48.988;8.450;2023-04-30T06:23:50;10.40;;;8.70;;
21814;SDS011;11069;48.988;8.450;2023-04-30T06:26:17;9.45;;;8.43;;
21814;SDS011;11069;48.988;8.450;2023-04-30T06:28:43;10.00;;;9.02;;
21814;SDS011;11069;48.988;8.450;2023-04-30T06:31:10;10.02;;;8.82;;
21814;SDS011;11069;48.988;8.450;2023-04-30T06:33:36;9.60;;;8.65;;
21814;SDS011;11069;48.988;8.450;2023-04-30T06:36:02;10.65;;;8.32;;
21814;SDS011;11069;48.988;8.450;2023-04-30T06:38:28;11.98;;;9.13;;
21814;SDS011;11069;48.988;8.450;2023-04-30T06:40:54;11.15;;;8.98;;
21814;SDS011;11069;48.988;8.450;2023-04-30T06:43:20;10.57;;;9.23;;
21814;SDS011;11069;48.988;8.450;2023-04-30T06:45:46;11.32;;;10.13;;
21814;SDS011;11069;48.988;8.450;2023-04-30T06:48:12;11.18;;;9.70;;
21814;SDS011;11069;48.988;8.450;2023-04-30T06:50:38;11.57;;;9.82;;
21814;SDS011;11069;48.988;8.450;2023-04-30T06:53:09;9.80;;;8.75;;
21814;SDS011;11069;48.988;8.450;2023-04-30T06:55:35;10.65;;;9.18;;
21814;SDS011;11069;48.988;8.450;2023-04-30T06:58:01;10.45;;;8.43;;
21814;SDS011;11069;48.988;8.450;2023-04-30T07:00:29;9.98;;;8.50;;
21814;SDS011;11069;48.988;8.450;2023-04-30T07:02:55;10.27;;;8.27;;
21814;SDS011;11069;48.988;8.450;2023-04-30T07:05:24;10.32;;;8.30;;
21814;SDS011;11069;48.988;8.450;2023-04-30T07:07:50;9.07;;;8.15;;
21814;SDS011;11069;48.988;8.450;2023-04-30T07:10:16;12.10;;;8.23;;
21814;SDS011;11069;48.988;8.450;2023-04-30T07:12:42;11.50;;;7.78;;
21814;SDS011;11069;48.988;8.450;2023-04-30T07:15:08;10.25;;;7.75;;
21814;SDS011;11069;48.988;8.450;2023-04-30T07:17:35;10.70;;;8.40;;
21814;SDS011;11069;48.988;8.450;2023-04-30T07:20:01;12.05;;;7.90;;
21814;SDS011;11069;48.988;8.450;2023-04-30T07:22:28;9.30;;;8.32;;
21814;SDS011;11069;48.988;8.450;2023-04-30T07:24:54;8.40;;;7.55;;
21814;SDS011;11069;48.988;8.450;2023-04-30T07:27:20;8.45;;;7.45;;
21814;SDS011;11069;48.988;8.450;2023-04-30T07:29:46;11.68;;;8.60;;
21814;SDS011;11069;48.988;8.450;2023-04-30T07:32:12;11.77;;;7.97;;
21814;SDS011;11069;48.988;8.450;2023-04-30T07:34:39;11.35;;;7.30;;
21814;SDS011;11069;48.988;8.450;2023-04-30T07:37:05;8.27;;;7.40;;
21814;SDS011;11069;48.988;8.450;2023-04-30T07:39:31;13.18;;;8.00;;
21814;SDS011;11069;48.988;8.450;2023-04-30T07:41:57;8.82;;;7.43;;
21814;SDS011;11069;48.988;8.450;2023-04-30T07:44:23;8.65;;;7.57;;
21814;SDS011;11069;48.988;8.450;2023-04-30T07:46:49;11.80;;;8.55;;
21814;SDS011;11069;48.988;8.450;2023-04-30T07:49:15;8.90;;;7.88;;
21814;SDS011;11069;48.988;8.450;2023-04-30T07:51:41;8.52;;;7.63;;
21814;SDS011;11069;48.988;8.450;2023-04-30T07:54:07;9.65;;;7.82;;
21814;SDS011;11069;48.988;8.450;2023-04-30T07:56:33;9.02;;;8.10;;
21814;SDS011;11069;48.988;8.450;2023-04-30T07:59:00;11.38;;;7.97;;
21814;SDS011;11069;48.988;8.450;2023-04-30T08:01:25;9.00;;;7.55;;
21814;SDS011;11069;48.988;8.450;2023-04-30T08:03:51;8.13;;;7.25;;
21814;SDS011;11069;48.988;8.450;2023-04-30T08:06:17;8.40;;;7.25;;
21814;SDS011;11069;48.988;8.450;2023-04-30T08:08:43;8.90;;;7.35;;
21814;SDS011;11069;48.988;8.450;2023-04-30T08:11:10;8.52;;;7.65;;
21814;SDS011;11069;48.988;8.450;2023-04-30T08:13:36;9.00;;;7.10;;
21814;SDS011;11069;48.988;8.450;2023-04-30T08:16:02;7.43;;;6.70;;
21814;SDS011;11069;48.988;8.450;2023-04-30T08:18:28;8.38;;;7.13;;
21814;SDS011;11069;48.988;8.450;2023-04-30T08:20:56;9.45;;;7.15;;
21814;SDS011;11069;48.988;8.450;2023-04-30T08:23:22;6.63;;;6.03;;
21814;SDS011;11069;48.988;8.450;2023-04-30T08:25:48;9.43;;;7.05;;
21814;SDS011;11069;48.988;8.450;2023-04-30T08:28:14;9.00;;;7.30;;
21814;SDS011;11069;48.988;8.450;2023-04-30T08:30:40;8.95;;;7.05;;
21814;SDS011;11069;48.988;8.450;2023-04-30T08:33:06;8.18;;;7.38;;
21814;SDS011;11069;48.988;8.450;2023-04-30T08:35:32;7.38;;;6.68;;
21814;SDS011;11069;48.988;8.450;2023-04-30T08:37:58;8.25;;;6.43;;
21814;SDS011;11069;48.988;8.450;2023-04-30T08:40:24;7.07;;;6.00;;
21814;SDS011;11069;48.988;8.450;2023-04-30T08:42:52;5.80;;;5.00;;
21814;SDS011;11069;48.988;8.450;2023-04-30T08:45:18;6.45;;;5.70;;
21814;SDS011;11069;48.988;8.450;2023-04-30T08:47:44;6.63;;;5.82;;
21814;SDS011;11069;48.988;8.450;2023-04-30T08:50:11;7.15;;;5.50;;
21814;SDS011;11069;48.988;8.450;2023-04-30T08:52:37;7.00;;;6.32;;
21814;SDS011;11069;48.988;8.450;2023-04-30T08:55:05;9.75;;;6.30;;
21814;SDS011;11069;48.988;8.450;2023-04-30T08:57:32;7.32;;;5.78;;
21814;SDS011;11069;48.988;8.450;2023-04-30T08:59:58;8.05;;;5.70;;
21814;SDS011;11069;48.988;8.450;2023-04-30T09:02:25;7.55;;;5.68;;
21814;SDS011;11069;48.988;8.450;2023-04-30T09:04:51;7.45;;;6.68;;
21814;SDS011;11069;48.988;8.450;2023-04-30T09:07:17;9.02;;;6.68;;
21814;SDS011;11069;48.988;8.450;2023-04-30T09:09:43;7.30;;;5.40;;
21814;SDS011;11069;48.988;8.450;2023-04-30T09:12:16;7.53;;;5.57;;
21814;SDS011;11069;48.988;8.450;2023-04-30T09:15:02;8.07;;;6.47;;
21814;SDS011;11069;48.988;8.450;2023-04-30T09:17:29;7.15;;;5.55;;
21814;SDS011;11069;48.988;8.450;2023-04-30T09:20:04;6.65;;;5.88;;
21814;SDS011;11069;48.988;8.450;2023-04-30T09:22:31;6.05;;;5.45;;
21814;SDS011;11069;48.988;8.450;2023-04-30T09:24:57;8.27;;;6.57;;
21814;SDS011;11069;48.988;8.450;2023-04-30T09:27:23;7.43;;;5.88;;
21814;SDS011;11069;48.988;8.450;2023-04-30T09:29:49;6.13;;;5.53;;
21814;SDS011;11069;48.988;8.450;2023-04-30T09:32:15;6.60;;;5.90;;
21814;SDS011;11069;48.988;8.450;2023-04-30T09:34:41;9.85;;;6.32;;
21814;SDS011;11069;48.988;8.450;2023-04-30T09:37:07;5.95;;;5.35;;
21814;SDS011;11069;48.988;8.450;2023-04-30T09:39:33;7.40;;;5.18;;
21814;SDS011;11069;48.988;8.450;2023-04-30T09:42:10;5.40;;;4.90;;
21814;SDS011;11069;48.988;8.450;2023-04-30T09:44:37;5.90;;;5.30;;
21814;SDS011;11069;48.988;8.450;2023-04-30T09:47:04;5.78;;;5.18;;
21814;SDS011;11069;48.988;8.450;2023-04-30T09:49:36;5.80;;;5.20;;
21814;SDS011;11069;48.988;8.450;2023-04-30T09:52:02;7.57;;;5.30;;
21814;SDS011;11069;48.988;8.450;2023-04-30T09:54:29;5.68;;;5.13;;
21814;SDS011;11069;48.988;8.450;2023-04-30T09:56:59;5.10;;;4.60;;
21814;SDS011;11069;48.988;8.450;2023-04-30T09:59:30;6.53;;;5.22;;
21814;SDS011;11069;48.988;8.450;2023-04-30T10:01:57;8.07;;;5.40;;
21814;SDS011;11069;48.988;8.450;2023-04-30T10:04:24;5.03;;;4.13;;
21814;SDS011;11069;48.988;8.450;2023-04-30T10:06:51;6.68;;;4.47;;
21814;SDS011;11069;48.988;8.450;2023-04-30T10:09:18;4.40;;;4.00;;
21814;SDS011;11069;48.988;8.450;2023-04-30T10:11:44;8.55;;;4.80;;
21814;SDS011;11069;48.988;8.450;2023-04-30T10:14:10;6.82;;;4.00;;
21814;SDS011;11069;48.988;8.450;2023-04-30T10:16:49;4.50;;;4.10;;
21814;SDS011;11069;48.988;8.450;2023-04-30T10:19:21;19.77;;;15.35;;
21814;SDS011;11069;48.988;8.450;2023-04-30T10:21:48;8.05;;;6.25;;
21814;SDS011;11069;48.988;8.450;2023-04-30T10:24:16;4.70;;;3.47;;
21814;SDS011;11069;48.988;8.450;2023-04-30T10:26:43;5.47;;;3.20;;
21814;SDS011;11069;48.988;8.450;2023-04-30T10:29:09;4.57;;;3.13;;
21814;SDS011;11069;48.988;8.450;2023-04-30T10:31:37;3.88;;;3.47;;
21814;SDS011;11069;48.988;8.450;2023-04-30T10:36:38;4.80;;;3.58;;
21814;SDS011;11069;48.988;8.450;2023-04-30T10:39:05;4.60;;;3.63;;
21814;SDS011;11069;48.988;8.450;2023-04-30T10:41:31;3.72;;;3.30;;
21814;SDS011;11069;48.988;8.450;2023-04-30T10:43:59;3.92;;;3.40;;
21814;SDS011;11069;48.988;8.450;2023-04-30T10:46:26;4.90;;;3.60;;
21814;SDS011;11069;48.988;8.450;2023-04-30T10:48:52;5.78;;;3.90;;
21814;SDS011;11069;48.988;8.450;2023-04-30T10:51:19;5.35;;;3.80;;
21814;SDS011;11069;48.988;8.450;2023-04-30T10:53:54;6.22;;;3.58;;
21814;SDS011;11069;48.988;8.450;2023-04-30T10:56:30;4.35;;;3.47;;
21814;SDS011;11069;48.988;8.450;2023-04-30T10:58:59;4.35;;;3.75;;
21814;SDS011;11069;48.988;8.450;2023-04-30T11:01:27;4.45;;;3.38;;
21814;SDS011;11069;48.988;8.450;2023-04-30T11:06:53;3.38;;;3.10;;
21814;SDS011;11069;48.988;8.450;2023-04-30T11:09:41;4.15;;;3.10;;
21814;SDS011;11069;48.988;8.450;2023-04-30T11:12:15;4.57;;;3.05;;
21814;SDS011;11069;48.988;8.450;2023-04-30T11:14:44;4.40;;;3.13;;
21814;SDS011;11069;48.988;8.450;2023-04-30T11:17:11;3.63;;;3.33;;
21814;SDS011;11069;48.988;8.450;2023-04-30T11:19:41;4.50;;;3.17;;
21814;SDS011;11069;48.988;8.450;2023-04-30T11:24:48;3.53;;;2.90;;
21814;SDS011;11069;48.988;8.450;2023-04-30T11:27:17;3.30;;;2.80;;
21814;SDS011;11069;48.988;8.450;2023-04-30T11:29:44;3.50;;;2.78;;
21814;SDS011;11069;48.988;8.450;2023-04-30T11:32:10;4.53;;;3.13;;
21814;SDS011;11069;48.988;8.450;2023-04-30T11:34:37;4.88;;;2.60;;
21814;SDS011;11069;48.988;8.450;2023-04-30T11:37:03;2.65;;;2.30;;
21814;SDS011;11069;48.988;8.450;2023-04-30T11:39:29;2.30;;;2.10;;
21814;SDS011;11069;48.988;8.450;2023-04-30T11:41:56;5.30;;;2.50;;
21814;SDS011;11069;48.988;8.450;2023-04-30T11:44:26;2.20;;;2.00;;
21814;SDS011;11069;48.988;8.450;2023-04-30T11:46:52;2.95;;;2.13;;
21814;SDS011;11069;48.988;8.450;2023-04-30T11:49:21;3.60;;;2.30;;
21814;SDS011;11069;48.988;8.450;2023-04-30T11:51:47;3.03;;;2.20;;
21814;SDS011;11069;48.988;8.450;2023-04-30T11:54:14;4.88;;;2.60;;
21814;SDS011;11069;48.988;8.450;2023-04-30T11:56:44;2.88;;;2.45;;
21814;SDS011;11069;48.988;8.450;2023-04-30T11:59:12;2.65;;;2.20;;
21814;SDS011;11069;48.988;8.450;2023-04-30T12:01:38;3.65;;;2.55;;
21814;SDS011;11069;48.988;8.450;2023-04-30T12:04:04;3.20;;;2.47;;
21814;SDS011;11069;48.988;8.450;2023-04-30T12:06:31;4.13;;;2.47;;
21814;SDS011;11069;48.988;8.450;2023-04-30T12:08:58;2.35;;;2.15;;
21814;SDS011;11069;48.988;8.450;2023-04-30T12:11:33;2.60;;;2.00;;
21814;SDS011;11069;48.988;8.450;2023-04-30T12:14:00;2.95;;;2.15;;
21814;SDS011;11069;48.988;8.450;2023-04-30T12:16:41;4.28;;;2.70;;
21814;SDS011;11069;48.988;8.450;2023-04-30T12:19:09;3.53;;;2.30;;
21814;SDS011;11069;48.988;8.450;2023-04-30T12:21:35;4.53;;;2.40;;
21814;SDS011;11069;48.988;8.450;2023-04-30T12:24:01;7.10;;;2.80;;
21814;SDS011;11069;48.988;8.450;2023-04-30T12:26:34;4.38;;;2.50;;
21814;SDS011;11069;48.988;8.450;2023-04-30T12:29:04;2.72;;;2.42;;
21814;SDS011;11069;48.988;8.450;2023-04-30T12:31:31;10.80;;;3.03;;
21814;SDS011;11069;48.988;8.450;2023-04-30T12:33:57;3.35;;;2.80;;
21814;SDS011;11069;48.988;8.450;2023-04-30T12:36:31;5.65;;;2.67;;
21814;SDS011;11069;48.988;8.450;2023-04-30T12:39:14;3.17;;;2.80;;
21814;SDS011;11069;48.988;8.450;2023-04-30T12:41:47;3.25;;;2.83;;
21814;SDS011;11069;48.988;8.450;2023-04-30T12:44:20;3.60;;;2.60;;
21814;SDS011;11069;48.988;8.450;2023-04-30T12:46:47;4.32;;;2.88;;
21814;SDS011;11069;48.988;8.450;2023-04-30T12:49:34;3.97;;;3.00;;
21814;SDS011;11069;48.988;8.450;2023-04-30T12:52:00;4.72;;;3.05;;
21814;SDS011;11069;48.988;8.450;2023-04-30T12:54:27;5.68;;;3.22;;
21814;SDS011;11069;48.988;8.450;2023-04-30T12:57:00;5.43;;;3.28;;
21814;SDS011;11069;48.988;8.450;2023-04-30T12:59:27;3.25;;;2.92;;
21814;SDS011;11069;48.988;8.450;2023-04-30T13:01:53;5.38;;;3.08;;
21814;SDS011;11069;48.988;8.450;2023-04-30T13:04:19;3.45;;;2.70;;
21814;SDS011;11069;48.988;8.450;2023-04-30T13:06:45;3.42;;;3.00;;
21814;SDS011;11069;48.988;8.450;2023-04-30T13:09:11;3.85;;;3.30;;
21814;SDS011;11069;48.988;8.450;2023-04-30T13:11:37;3.53;;;2.90;;
21814;SDS011;11069;48.988;8.450;2023-04-30T13:14:03;3.05;;;2.75;;
21814;SDS011;11069;48.988;8.450;2023-04-30T13:16:30;6.03;;;2.88;;
21814;SDS011;11069;48.988;8.450;2023-04-30T13:18:56;3.50;;;2.95;;
21814;SDS011;11069;48.988;8.450;2023-04-30T13:21:22;3.42;;;2.83;;
21814;SDS011;11069;48.988;8.450;2023-04-30T13:23:48;3.08;;;2.60;;
21814;SDS011;11069;48.988;8.450;2023-04-30T13:26:14;3.35;;;3.05;;
21814;SDS011;11069;48.988;8.450;2023-04-30T13:28:41;3.50;;;3.03;;
21814;SDS011;11069;48.988;8.450;2023-04-30T13:31:07;5.22;;;2.85;;
21814;SDS011;11069;48.988;8.450;2023-04-30T13:33:33;3.17;;;2.88;;
21814;SDS011;11069;48.988;8.450;2023-04-30T13:35:59;3.25;;;2.95;;
21814;SDS011;11069;48.988;8.450;2023-04-30T13:38:25;4.20;;;3.25;;
21814;SDS011;11069;48.988;8.450;2023-04-30T13:40:51;3.50;;;3.20;;
21814;SDS011;11069;48.988;8.450;2023-04-30T13:43:17;4.82;;;3.15;;
21814;SDS011;11069;48.988;8.450;2023-04-30T13:45:43;3.20;;;2.90;;
21814;SDS011;11069;48.988;8.450;2023-04-30T13:48:09;4.35;;;3.20;;
21814;SDS011;11069;48.988;8.450;2023-04-30T13:50:35;4.60;;;3.33;;
21814;SDS011;11069;48.988;8.450;2023-04-30T13:53:01;4.50;;;3.25;;
21814;SDS011;11069;48.988;8.450;2023-04-30T13:55:27;3.30;;;3.00;;
21814;SDS011;11069;48.988;8.450;2023-04-30T13:57:53;2.92;;;2.70;;
21814;SDS011;11069;48.988;8.450;2023-04-30T14:00:20;3.33;;;2.72;;
21814;SDS011;11069;48.988;8.450;2023-04-30T14:02:46;3.60;;;2.72;;
21814;SDS011;11069;48.988;8.450;2023-04-30T14:05:12;2.55;;;2.35;;
21814;SDS011;11069;48.988;8.450;2023-04-30T14:07:39;3.38;;;3.00;;
21814;SDS011;11069;48.988;8.450;2023-04-30T14:10:05;5.50;;;2.88;;
21814;SDS011;11069;48.988;8.450;2023-04-30T14:12:32;4.45;;;2.90;;
21814;SDS011;11069;48.988;8.450;2023-04-30T14:14:58;2.88;;;2.60;;
21814;SDS011;11069;48.988;8.450;2023-04-30T14:17:24;5.40;;;2.83;;
21814;SDS011;11069;48.988;8.450;2023-04-30T14:19:53;3.10;;;2.90;;
21814;SDS011;11069;48.988;8.450;2023-04-30T14:22:19;3.28;;;2.88;;
21814;SDS011;11069;48.988;8.450;2023-04-30T14:24:45;4.10;;;3.20;;
21814;SDS011;11069;48.988;8.450;2023-04-30T14:27:11;3.40;;;3.10;;
21814;SDS011;11069;48.988;8.450;2023-04-30T14:29:37;2.95;;;2.75;;
21814;SDS011;11069;48.988;8.450;2023-04-30T14:34:30;3.92;;;2.80;;
21814;SDS011;11069;48.988;8.450;2023-04-30T14:36:57;5.40;;;3.38;;
21814;SDS011;11069;48.988;8.450;2023-04-30T14:39:23;3.20;;;2.90;;
21814;SDS011;11069;48.988;8.450;2023-04-30T14:41:50;2.83;;;2.63;;
21814;SDS011;11069;48.988;8.450;2023-04-30T14:44:16;3.67;;;2.95;;
21814;SDS011;11069;48.988;8.450;2023-04-30T14:46:42;5.20;;;3.50;;
21814;SDS011;11069;48.988;8.450;2023-04-30T14:49:08;3.60;;;3.05;;
21814;SDS011;11069;48.988;8.450;2023-04-30T14:51:34;5.07;;;2.80;;
21814;SDS011;11069;48.988;8.450;2023-04-30T14:54:00;4.75;;;3.53;;
21814;SDS011;11069;48.988;8.450;2023-04-30T14:56:26;3.53;;;2.85;;
21814;SDS011;11069;48.988;8.450;2023-04-30T14:58:52;3.25;;;2.95;;
21814;SDS011;11069;48.988;8.450;2023-04-30T15:01:18;2.97;;;2.70;;
21814;SDS011;11069;48.988;8.450;2023-04-30T15:03:44;4.80;;;3.45;;
21814;SDS011;11069;48.988;8.450;2023-04-30T15:06:10;3.13;;;2.83;;
21814;SDS011;11069;48.988;8.450;2023-04-30T15:08:37;3.38;;;2.75;;
21814;SDS011;11069;48.988;8.450;2023-04-30T15:11:04;6.20;;;3.38;;
21814;SDS011;11069;48.988;8.450;2023-04-30T15:13:33;3.13;;;2.83;;
21814;SDS011;11069;48.988;8.450;2023-04-30T15:15:59;6.35;;;4.97;;